Time;durP1;ratioP1;P1;durP2;ratioP2;P2;SDS_P1;SDS_P2;PMS_P1;PMS_P2;Temp;Humidity;BMP_temperature;BMP_pressure;BME280_temperature;BME280_humidity;BME280_pressure;Samples;Min_cycle;Max_cycle;Signal;HPM_P1;HPM_P2
2023/03/26 00:01:39;;;;;;;4.35;1.40;;;11.00;99.90;;;11.07;99.05;100245.78;5146677;28;20053;-67
2023/03/26 00:04:12;;;;;;;5.60;1.20;;;11.00;99.90;;;11.06;98.80;100242.28;5146091;28;20479;-69
2023/03/26 00:06:47;;;;;;;4.32;0.95;;;11.00;99.90;;;11.08;98.52;100239.72;5145595;28;20134;-69
2023/03/26 00:09:19;;;;;;;4.15;0.95;;;11.00;99.90;;;11.08;98.53;100240.63;5146645;28;20042;-68
2023/03/26 00:11:52;;;;;;;4.07;1.20;;;11.00;99.90;;;11.06;98.42;100244.00;5146414;28;20520;-68
2023/03/26 00:14:25;;;;;;;7.63;0.93;;;11.00;99.90;;;11.08;99.18;100256.28;5147559;28;20053;-68
2023/03/26 00:17:01;;;;;;;5.38;1.13;;;11.00;99.90;;;11.10;98.99;100257.19;5145658;28;20069;-67
2023/03/26 00:19:33;;;;;;;4.38;1.15;;;11.00;99.90;;;11.12;98.96;100259.81;5146676;28;20046;-68
2023/03/26 00:22:06;;;;;;;5.70;1.20;;;11.00;99.90;;;11.11;98.80;100245.88;5145224;28;20045;-68
2023/03/26 00:24:38;;;;;;;4.57;1.25;;;11.10;99.90;;;11.14;98.98;100255.50;5146112;28;20109;-68
2023/03/26 00:27:11;;;;;;;4.78;1.00;;;11.10;99.90;;;11.14;99.00;100250.28;5147501;28;20422;-68
2023/03/26 00:29:47;;;;;;;1.88;0.70;;;11.00;99.90;;;11.15;99.44;100246.88;5147513;28;20042;-67
2023/03/26 00:32:20;;;;;;;3.53;0.82;;;11.10;99.90;;;11.14;99.44;100245.94;5147749;28;20118;-68
2023/03/26 00:34:55;;;;;;;2.35;0.65;;;11.10;99.90;;;11.16;99.65;100239.91;5139275;28;20043;-68
2023/03/26 00:37:27;;;;;;;3.85;0.90;;;11.10;99.90;;;11.16;99.11;100242.53;5162013;28;20043;-69
2023/03/26 00:40:09;;;;;;;4.25;0.93;;;11.10;99.90;;;11.15;98.86;100236.44;5147030;28;20558;-68
2023/03/26 00:42:41;;;;;;;3.65;1.00;;;11.10;99.90;;;11.13;98.87;100231.16;5146969;28;20056;-69
2023/03/26 00:45:13;;;;;;;2.90;0.85;;;11.00;99.90;;;11.13;99.25;100227.66;5146270;28;20134;-68
2023/03/26 00:47:48;;;;;;;4.53;1.00;;;11.00;99.90;;;11.10;99.04;100231.09;5145915;28;20043;-68
2023/03/26 00:50:24;;;;;;;4.18;0.90;;;11.00;99.90;;;11.08;98.79;100219.75;5145799;28;20058;-68
2023/03/26 00:52:57;;;;;;;3.10;0.80;;;11.00;99.90;;;11.08;99.29;100214.53;5138927;28;20051;-68
2023/03/26 00:55:30;;;;;;;4.65;1.50;;;11.00;99.90;;;11.09;99.28;100221.50;5145367;28;20049;-69
2023/03/26 00:58:02;;;;;;;4.63;1.10;;;11.00;99.90;;;11.08;99.28;100219.75;5145045;28;20051;-69
2023/03/26 01:00:39;;;;;;;4.32;0.88;;;11.00;99.90;;;11.08;99.16;100214.53;5144584;28;20058;-68
2023/03/26 01:03:16;;;;;;;5.60;1.25;;;11.00;99.90;;;11.08;98.95;100214.53;5144078;28;20077;-69
2023/03/26 01:05:52;;;;;;;3.22;1.08;;;11.00;99.90;;;11.04;99.22;100199.66;5160234;28;20050;-69
2023/03/26 01:08:29;;;;;;;7.72;1.55;;;11.00;99.90;;;11.04;99.23;100202.25;5143945;28;20512;-69
2023/03/26 01:11:12;;;;;;;4.32;0.75;;;11.00;99.90;;;11.02;99.48;100193.53;5160808;28;20147;-68
2023/03/26 01:13:51;;;;;;;3.30;1.30;;;10.90;99.90;;;11.01;99.65;100186.53;5145106;28;20425;-68
2023/03/26 01:16:28;;;;;;;4.47;1.55;;;11.00;99.90;;;11.00;99.62;100186.50;5144082;28;20086;-68
2023/03/26 01:19:02;;;;;;;3.22;1.45;;;10.90;99.90;;;10.98;100.00;100181.25;5145733;28;20050;-68
2023/03/26 01:21:34;;;;;;;2.05;0.85;;;10.90;99.90;;;10.97;100.00;100169.06;5145461;28;20050;-69
2023/03/26 01:24:10;;;;;;;2.92;1.02;;;10.90;99.90;;;10.94;100.00;100168.97;5143873;28;20051;-68
2023/03/26 01:27:00;;;;;;;3.55;0.90;;;10.80;99.90;;;10.90;100.00;100164.56;5143772;28;20062;-68
2023/03/26 01:29:41;;;;;;;4.18;1.00;;;10.80;99.90;;;10.84;100.00;100164.41;5145758;28;20109;-68
2023/03/26 01:32:34;;;;;;;1.55;0.80;;;10.80;99.90;;;10.79;100.00;100163.41;5145716;28;20530;-68
2023/03/26 01:35:32;;;;;;;2.22;0.73;;;10.70;99.90;;;10.71;100.00;100155.41;5139390;28;20050;-68
2023/03/26 01:41:31;;;;;;;3.05;1.23;;;10.60;99.90;;;10.59;100.00;100162.94;5143188;28;20052;-69
2023/03/26 01:44:11;;;;;;;2.55;0.88;;;10.50;99.90;;;10.53;100.00;100152.34;5138282;28;20046;-68
2023/03/26 01:46:48;;;;;;;2.47;0.75;;;10.50;99.90;;;10.49;100.00;100147.88;5142565;28;20137;-69
2023/03/26 01:49:21;;;;;;;3.20;0.95;;;10.40;99.90;;;10.45;100.00;100149.56;5144588;28;20047;-68
2023/03/26 01:51:55;;;;;;;2.58;0.80;;;10.40;99.90;;;10.41;100.00;100142.50;5147644;28;20043;-69
2023/03/26 01:54:32;;;;;;;4.30;1.23;;;10.40;99.90;;;10.36;100.00;100138.00;5124807;28;20168;-69
2023/03/26 01:57:15;;;;;;;3.00;1.10;;;10.30;99.90;;;10.33;100.00;100136.22;5139808;28;20039;-68
2023/03/26 02:00:19;;;;;;;3.35;0.93;;;10.30;99.90;;;10.29;100.00;100124.81;5124458;28;20043;-68
2023/03/26 02:03:16;;;;;;;1.85;1.25;;;10.20;99.90;;;10.27;100.00;100121.31;5124642;28;20098;-68
2023/03/26 02:05:56;;;;;;;3.58;1.20;;;10.20;99.90;;;10.23;100.00;100114.25;5140262;28;20043;-68
2023/03/26 02:08:35;;;;;;;4.43;1.40;;;10.20;99.90;;;10.24;100.00;100121.25;5139032;28;20051;-68
2023/03/26 02:11:12;;;;;;;5.53;0.90;;;10.20;99.90;;;10.24;100.00;100115.16;5137617;28;20058;-68
2023/03/26 02:13:47;;;;;;;4.28;0.90;;;10.20;99.90;;;10.24;100.00;100109.94;5127906;28;20043;-68
2023/03/26 02:16:21;;;;;;;3.60;0.88;;;10.20;99.90;;;10.23;100.00;100110.75;5124817;28;20051;-67
2023/03/26 02:18:54;;;;;;;4.68;0.90;;;10.20;99.90;;;10.26;100.00;100113.47;5154484;28;20103;-67
2023/03/26 02:21:32;;;;;;;6.03;1.17;;;10.20;99.90;;;10.26;100.00;100108.25;5124357;28;20044;-68
2023/03/26 02:24:05;;;;;;;6.05;1.23;;;10.20;99.90;;;10.26;100.00;100092.63;5144142;28;20049;-69
2023/03/26 02:26:41;;;;;;;4.68;1.17;;;10.20;99.90;;;10.26;100.00;100090.03;5140913;28;20512;-68
2023/03/26 02:29:19;;;;;;;4.50;1.10;;;10.20;99.90;;;10.28;100.00;100085.72;5138515;28;20134;-69
2023/03/26 02:31:52;;;;;;;3.60;1.02;;;10.20;99.90;;;10.30;100.00;100073.59;5154417;28;20043;-68
2023/03/26 02:34:24;;;;;;;2.78;0.77;;;10.20;99.90;;;10.29;100.00;100072.72;5139061;28;20054;-68
2023/03/26 02:37:00;;;;;;;4.10;0.88;;;10.30;99.90;;;10.33;100.00;100068.50;5131739;28;20047;-69
2023/03/26 02:39:34;;;;;;;2.85;0.77;;;10.30;99.90;;;10.32;100.00;100071.94;5137774;28;20043;-68
2023/03/26 02:42:14;;;;;;;3.33;0.95;;;10.30;99.90;;;10.33;100.00;100058.06;5138587;28;20063;-68
2023/03/26 02:44:53;;;;;;;5.15;0.80;;;10.30;99.90;;;10.34;100.00;100054.63;5122643;28;20448;-68
2023/03/26 02:47:25;;;;;;;3.38;0.80;;;10.30;99.90;;;10.36;100.00;100050.31;5123517;28;20287;-68
2023/03/26 02:49:57;;;;;;;7.15;1.45;;;10.30;99.90;;;10.41;100.00;100048.69;5131755;28;20047;-69
2023/03/26 02:52:49;;;;;;;4.40;1.20;;;10.30;99.90;;;10.42;100.00;100045.25;5123025;28;20047;-68
2023/03/26 02:55:22;;;;;;;6.50;1.20;;;10.40;99.90;;;10.43;100.00;100049.63;5137335;28;20447;-67
2023/03/26 02:57:57;;;;;;;5.50;1.40;;;10.40;99.90;;;10.46;100.00;100048.81;5141722;28;20066;-69
2023/03/26 03:00:36;;;;;;;3.60;1.40;;;10.40;99.90;;;10.47;100.00;100045.38;5149067;28;20047;-68
2023/03/26 03:03:33;;;;;;;4.43;1.20;;;10.40;99.90;;;10.49;100.00;100044.53;5137778;28;20058;-69
2023/03/26 03:06:07;;;;;;;4.00;1.17;;;10.40;99.90;;;10.51;100.00;100040.28;5123465;28;20051;-68
2023/03/26 03:08:52;;;;;;;5.22;0.90;;;10.50;99.90;;;10.52;100.00;100043.75;5123547;28;20042;-69
2023/03/26 03:11:43;;;;;;;4.75;1.08;;;10.50;99.90;;;10.51;100.00;100037.66;5123467;28;20051;-68
2023/03/26 03:14:15;;;;;;;3.05;0.90;;;10.50;99.90;;;10.51;100.00;100035.06;5141753;28;20504;-68
2023/03/26 03:16:49;;;;;;;5.88;1.35;;;10.50;99.90;;;10.52;100.00;100026.38;5138887;28;20146;-68
2023/03/26 03:19:21;;;;;;;4.40;1.33;;;10.50;99.90;;;10.50;100.00;100020.28;5133428;28;20110;-68
2023/03/26 03:21:56;;;;;;;3.55;0.88;;;10.50;99.90;;;10.49;100.00;100010.66;5123584;28;20035;-68
2023/03/26 03:24:28;;;;;;;5.35;1.10;;;10.50;99.90;;;10.48;100.00;100011.53;5138571;28;20047;-70
2023/03/26 03:27:00;;;;;;;4.22;1.10;;;10.50;99.90;;;10.47;100.00;100004.56;5139162;28;20049;-69
2023/03/26 03:29:40;;;;;;;3.80;0.90;;;10.50;99.90;;;10.46;100.00;99997.59;5128267;28;20476;-69
2023/03/26 03:32:51;;;;;;;5.68;1.00;;;10.40;99.90;;;10.45;100.00;99995.84;5103421;29;20525;-68
2023/03/26 03:35:28;;;;;;;4.78;0.90;;;10.40;99.90;;;10.44;100.00;99991.47;5126356;28;20052;-67
2023/03/26 03:38:03;;;;;;;5.18;1.05;;;10.40;99.90;;;10.43;100.00;99987.13;5141914;28;20055;-68
2023/03/26 03:40:45;;;;;;;3.08;1.10;;;10.40;99.90;;;10.44;100.00;99993.19;5125524;28;20452;-68
2023/03/26 03:43:18;;;;;;;3.50;1.10;;;10.40;99.90;;;10.44;100.00;99986.25;5141701;28;20047;-67
2023/03/26 03:46:05;;;;;;;4.22;0.93;;;10.40;99.90;;;10.42;100.00;99985.31;5133310;28;20523;-69
2023/03/26 03:48:51;;;;;;;3.50;1.23;;;10.40;99.90;;;10.43;100.00;99981.91;5204235;23;20043;-70
2023/03/26 03:51:29;;;;;;;5.22;1.00;;;10.40;99.90;;;10.41;100.00;99974.88;5143793;28;20054;-71
2023/03/26 03:54:04;;;;;;;4.45;1.00;;;10.40;99.90;;;10.40;100.00;99975.72;5137905;28;20566;-71
2023/03/26 03:56:57;;;;;;;9.52;1.50;;;10.30;99.90;;;10.39;100.00;99969.63;5125562;28;20117;-71
2023/03/26 04:00:07;;;;;;;3.17;1.10;;;10.40;99.90;;;10.39;100.00;99964.44;5140673;28;20118;-71
2023/03/26 04:02:47;;;;;;;6.00;1.23;;;10.40;99.90;;;10.38;100.00;99956.59;5138784;28;20074;-72
2023/03/26 04:05:22;;;;;;;3.50;0.90;;;10.40;99.90;;;10.36;100.00;99943.50;5161622;28;20153;-70
2023/03/26 04:07:56;;;;;;;4.40;1.10;;;10.40;99.90;;;10.35;100.00;99949.56;5145260;28;20054;-71
2023/03/26 04:10:31;;;;;;;4.05;1.10;;;10.30;99.90;;;10.33;100.00;99949.53;5146138;28;20050;-71
2023/03/26 04:13:18;;;;;;;3.22;1.20;;;10.30;99.90;;;10.32;100.00;99937.34;5146983;28;20447;-71
2023/03/26 04:16:09;;;;;;;8.02;1.63;;;10.30;99.90;;;10.28;100.00;99935.53;5139917;28;20062;-70
2023/03/26 04:18:44;;;;;;;7.10;1.40;;;10.30;99.90;;;10.25;100.00;99937.19;5161677;28;20138;-70
2023/03/26 04:21:21;;;;;;;5.18;1.50;;;10.30;99.90;;;10.19;100.00;99924.88;5146646;28;20463;-70
2023/03/26 04:23:53;;;;;;;7.47;1.27;;;10.20;99.90;;;10.13;100.00;99913.44;5144237;28;20042;-71
2023/03/26 04:26:51;;;;;;;7.18;1.52;;;10.20;99.90;;;10.10;100.00;99914.25;5145496;28;20055;-70
2023/03/26 04:29:29;;;;;;;3.35;1.48;;;10.20;99.90;;;10.11;100.00;99910.81;5153433;28;20094;-71
2023/03/26 04:32:06;;;;;;;3.17;1.38;;;10.10;99.90;;;10.10;100.00;99905.53;5144795;28;20467;-70
2023/03/26 04:34:39;;;;;;;6.47;1.10;;;10.10;99.90;;;10.08;100.00;99900.31;5145135;28;20086;-70
2023/03/26 04:37:26;;;;;;;10.80;1.80;;;10.10;99.90;;;10.06;100.00;99900.28;5145451;28;20505;-70
2023/03/26 04:40:14;;;;;;;4.60;1.30;;;10.10;99.90;;;10.04;100.00;99899.38;5160942;28;20039;-71
2023/03/26 04:43:05;;;;;;;6.25;1.77;;;10.10;99.90;;;10.02;100.00;99890.63;5146456;28;20058;-70
2023/03/26 04:46:09;;;;;;;4.30;1.20;;;10.00;99.90;;;10.01;100.00;99888.88;5130849;28;20055;-71
2023/03/26 04:48:51;;;;;;;4.93;1.15;;;10.00;99.90;;;10.00;100.00;99879.31;5143462;28;20043;-71
2023/03/26 04:51:27;;;;;;;7.05;1.40;;;10.00;99.90;;;9.96;100.00;99874.88;5160634;28;20094;-70
2023/03/26 04:54:02;;;;;;;5.40;1.48;;;10.00;99.90;;;9.95;100.00;99862.72;5143869;28;20050;-70
2023/03/26 04:56:48;;;;;;;3.05;1.13;;;10.00;99.90;;;9.94;100.00;99863.56;5159876;28;20053;-70
2023/03/26 04:59:44;;;;;;;5.32;1.38;;;9.90;99.90;;;9.94;100.00;99865.28;5134347;28;20063;-71
2023/03/26 05:02:19;;;;;;;;;;;10.00;99.90;;;9.91;100.00;99863.50;5153055;28;20065;-70
2023/03/26 05:05:01;;;;;;;5.35;1.77;;;9.90;99.90;;;9.88;100.00;99855.59;5143829;28;20035;-70
2023/03/26 05:07:36;;;;;;;6.00;1.92;;;9.90;99.90;;;9.86;100.00;99852.09;5159868;28;20097;-71
2023/03/26 05:10:14;;;;;;;4.10;1.42;;;9.90;99.90;;;9.84;100.00;99850.28;5159972;28;20135;-70
2023/03/26 05:12:56;;;;;;;8.70;1.63;;;9.80;99.90;;;9.81;100.00;99842.44;5159838;28;20042;-71
2023/03/26 05:15:32;;;;;;;9.52;2.13;;;9.80;99.90;;;9.74;100.00;99834.47;5159587;28;20057;-70
2023/03/26 05:18:13;;;;;;;11.30;2.90;;;9.80;99.90;;;9.73;100.00;99835.31;5145421;28;20098;-70
2023/03/26 05:20:49;;;;;;;8.10;2.65;;;9.80;99.90;;;9.72;100.00;99832.69;5135955;28;20432;-70
2023/03/26 05:23:22;;;;;;;9.23;3.83;;;9.80;99.90;;;9.70;100.00;99824.81;5159840;28;20157;-71
2023/03/26 05:26:03;;;;;;;9.98;3.97;;;9.80;99.90;;;9.72;100.00;99819.69;5159157;28;20130;-71
2023/03/26 05:28:35;;;;;;;13.32;5.28;;;9.80;99.90;;;9.72;100.00;99822.28;5135303;28;20111;-71
2023/03/26 05:31:23;;;;;;;9.90;4.40;;;9.70;99.90;;;9.75;100.00;99814.53;5143323;28;20106;-70
2023/03/26 05:33:59;;;;;;;10.15;4.65;;;9.80;99.90;;;9.77;100.00;99810.22;5159876;28;20495;-71
2023/03/26 05:36:32;;;;;;;7.60;3.35;;;9.80;99.90;;;9.78;100.00;99804.22;5143122;28;20051;-71
2023/03/26 05:39:26;;;;;;;7.78;3.85;;;9.80;99.90;;;9.79;100.00;99808.56;5140959;28;20481;-71
2023/03/26 05:42:18;;;;;;;7.20;2.85;;;9.80;99.90;;;9.80;100.00;99807.72;5139383;28;20054;-71
2023/03/26 05:45:13;;;;;;;5.35;2.08;;;9.80;99.90;;;9.81;100.00;99801.66;5143642;28;20047;-70
2023/03/26 05:47:46;;;;;;;7.40;2.70;;;9.80;99.90;;;9.82;100.00;99806.00;5152438;28;20526;-71
2023/03/26 05:50:19;;;;;;;4.63;2.38;;;9.80;99.90;;;9.81;100.00;99796.44;5160159;28;20062;-70
2023/03/26 05:52:52;;;;;;;5.53;2.53;;;9.80;99.90;;;9.81;100.00;99791.25;5143802;28;20105;-71
2023/03/26 05:56:03;;;;;;;9.40;4.35;;;9.80;99.90;;;9.81;100.00;99791.25;5144280;28;20042;-70
2023/03/26 05:59:00;;;;;;;10.23;4.18;;;9.80;99.90;;;9.76;100.00;99792.88;5152072;28;20055;-71
2023/03/26 06:01:53;;;;;;;10.30;4.20;;;9.80;99.90;;;9.75;100.00;99788.50;5144711;28;20059;-71
2023/03/26 06:04:44;;;;;;;8.75;3.40;;;9.80;99.90;;;9.71;100.00;99790.16;5143871;28;20054;-59
2023/03/26 06:07:30;;;;;;;8.65;2.95;;;9.70;99.90;;;9.72;100.00;99778.03;5143533;28;20134;-59
2023/03/26 06:10:28;;;;;;;5.03;2.15;;;9.70;99.90;;;9.67;100.00;99766.66;5143215;28;20446;-57
2023/03/26 06:13:00;;;;;;;8.93;2.53;;;9.70;99.90;;;9.61;100.00;99770.00;5158408;28;20471;-58
2023/03/26 06:15:33;;;;;;;7.35;1.40;;;9.70;99.90;;;9.52;100.00;99756.78;5143431;28;20118;-58
2023/03/26 06:18:09;;;;;;;3.92;1.50;;;9.60;99.90;;;9.50;100.00;99754.13;5158274;28;20078;-59
2023/03/26 06:20:51;;;;;;;3.63;1.52;;;9.60;99.90;;;9.49;100.00;99752.38;5150162;28;20047;-57
2023/03/26 06:23:35;;;;;;;9.05;2.35;;;9.60;99.90;;;9.48;100.00;99742.81;5158436;28;20065;-60
2023/03/26 06:26:07;;;;;;;9.80;2.00;;;9.60;99.90;;;9.44;100.00;99743.59;5143124;28;20042;-57
2023/03/26 06:28:54;;;;;;;8.65;1.98;;;9.50;99.90;;;9.39;100.00;99744.31;5134448;28;20134;-59
2023/03/26 06:31:52;;;;;;;9.20;1.98;;;9.50;99.90;;;9.38;100.00;99742.56;5150062;28;20047;-58
2023/03/26 06:34:28;;;;;;;6.47;1.63;;;9.50;99.90;;;9.34;100.00;99731.25;5141952;28;20073;-58
2023/03/26 06:37:00;;;;;;;3.88;1.40;;;9.50;99.90;;;9.36;100.00;99726.06;5142773;28;20126;-58
2023/03/26 06:39:33;;;;;;;9.25;1.80;;;9.40;99.90;;;9.32;100.00;99722.50;5158367;28;20415;-57
2023/03/26 06:42:32;;;;;;;8.13;1.40;;;9.50;99.90;;;9.29;100.00;99721.56;5136187;28;20399;-57
2023/03/26 06:45:21;;;;;;;6.60;1.70;;;9.40;99.90;;;9.33;100.00;99716.47;5158855;28;20053;-60
2023/03/26 06:48:20;;;;;;;5.90;1.63;;;9.40;99.90;;;9.36;100.00;99711.34;5143723;28;20102;-58
2023/03/26 06:51:03;;;;;;;6.10;2.10;;;9.40;99.90;;;9.35;100.00;99717.38;5143610;28;20053;-58
2023/03/26 06:53:58;;;;;;;7.47;2.05;;;9.40;99.90;;;9.33;100.00;99716.47;5143778;28;20059;-59
2023/03/26 06:56:48;;;;;;;7.13;2.58;;;9.40;99.90;;;9.35;100.00;99717.38;5143886;28;20053;-58
2023/03/26 06:59:39;;;;;;;9.15;2.85;;;9.40;99.90;;;9.38;100.00;99713.97;5135661;28;20088;-60
2023/03/26 07:02:30;;;;;;;7.07;3.80;;;9.40;99.90;;;9.35;100.00;99712.19;5143263;28;20157;-59
2023/03/26 07:05:22;;;;;;;15.38;5.75;;;9.40;99.90;;;9.34;100.00;99710.44;5144289;28;20047;-58
2023/03/26 07:08:13;;;;;;;9.02;4.00;;;9.40;99.90;;;9.34;100.00;99712.16;5136706;28;20177;-58
2023/03/26 07:11:05;;;;;;;10.18;3.15;;;9.40;99.90;;;9.38;100.00;99707.03;5143070;28;20047;-59
2023/03/26 07:13:56;;;;;;;7.07;2.67;;;9.40;99.90;;;9.40;100.00;99702.75;5143233;28;20057;-57
2023/03/26 07:17:01;;;;;;;8.20;2.10;;;9.50;99.90;;;9.29;100.00;99687.75;5135114;28;20519;-58
2023/03/26 07:19:51;;;;;;;7.63;2.55;;;9.40;99.90;;;9.27;100.00;99687.72;5157942;28;20059;-60
2023/03/26 07:22:26;;;;;;;7.13;1.85;;;9.40;99.90;;;9.27;100.00;99684.25;5150104;28;20496;-58
2023/03/26 07:25:20;;;;;;;6.10;2.10;;;9.40;99.90;;;9.22;100.00;99674.63;5136069;28;20070;-58
2023/03/26 07:28:02;;;;;;;8.45;2.10;;;9.30;99.90;;;9.25;100.00;99672.06;5142838;28;20050;-58
2023/03/26 07:31:10;;;;;;;11.15;2.47;;;9.30;99.90;;;9.24;100.00;99674.66;5149884;28;20504;-58
2023/03/26 07:34:05;;;;;;;6.40;1.70;;;9.30;99.90;;;9.19;100.00;99673.66;5141195;28;20521;-58
2023/03/26 07:37:03;;;;;;;5.95;2.83;;;9.30;99.90;;;9.18;100.00;99666.72;5156890;28;20134;-58
2023/03/26 07:40:06;;;;;;;6.00;2.03;;;9.30;99.90;;;9.21;100.00;99669.41;5157362;28;20400;-58
2023/03/26 07:43:07;;;;;;;10.10;4.18;;;9.30;99.90;;;9.17;100.00;99662.34;5143807;28;20597;-59
2023/03/26 07:45:58;;;;;;;8.30;2.83;;;9.30;99.90;;;9.18;100.00;99656.31;5143171;28;20154;-58
2023/03/26 07:48:53;;;;;;;6.57;2.38;;;9.30;99.90;;;9.11;100.00;99649.22;5141364;28;20416;-58
2023/03/26 07:51:40;;;;;;;6.63;2.00;;;9.30;99.90;;;9.11;100.00;99641.41;5142836;28;20456;-57
2023/03/26 07:54:17;;;;;;;6.90;2.00;;;9.20;99.90;;;9.11;100.00;99646.63;5134696;28;20097;-57
2023/03/26 07:57:43;;;;;;;7.13;1.83;;;9.20;99.90;;;9.05;100.00;99636.09;5160093;28;20050;-56
2023/03/26 08:00:46;;;;;;;13.00;4.15;;;9.20;99.90;;;9.04;100.00;99636.94;5137451;28;20050;-56
2023/03/26 08:03:31;;;;;;;8.77;2.95;;;9.20;99.90;;;9.03;100.00;99636.06;5151155;28;20721;-57
2023/03/26 08:06:32;;;;;;;6.47;2.10;;;9.20;99.90;;;9.19;100.00;99627.78;5135765;28;20134;-57
2023/03/26 08:09:31;;;;;;;5.40;1.75;;;9.40;99.90;;;9.22;100.00;99626.94;5142813;28;20162;-56
2023/03/26 08:12:36;;;;;;;7.55;2.13;;;9.40;99.90;;;9.18;100.00;99625.97;5161376;28;20050;-56
2023/03/26 08:15:18;;;;;;;8.02;2.65;;;9.40;99.90;;;9.16;100.00;99632.00;5146535;28;20118;-56
2023/03/26 08:17:55;;;;;;;12.65;3.30;;;9.30;99.90;;;9.11;100.00;99618.91;5146095;28;20174;-57
2023/03/26 08:20:40;;;;;;;9.02;2.53;;;9.30;99.90;;;9.07;100.00;99616.22;5146052;28;20134;-56
2023/03/26 08:23:22;;;;;;;9.30;2.38;;;9.30;99.90;;;9.07;100.00;99624.03;5146072;28;20140;-56
2023/03/26 08:26:01;;;;;;;8.30;2.15;;;9.30;99.90;;;9.06;100.00;99614.44;5146057;28;20109;-57
2023/03/26 08:28:49;;;;;;;6.95;2.47;;;9.20;99.90;;;9.04;100.00;99614.41;5139007;28;20049;-56
2023/03/26 08:31:27;;;;;;;;;;;9.20;99.90;;;9.01;100.00;99608.28;5139337;28;20042;-55
2023/03/26 08:33:59;;;;;;;7.93;2.25;;;9.30;99.90;;;9.01;100.00;99608.28;5137726;28;20017;-56
2023/03/26 08:36:32;;;;;;;10.15;3.58;;;9.20;99.90;;;9.00;100.00;99620.41;5139511;28;20400;-57
2023/03/26 08:39:04;;;;;;;6.30;3.63;;;9.20;99.90;;;9.03;100.00;99614.38;5144300;28;20129;-56
2023/03/26 08:42:24;;;;;;;14.63;3.65;;;9.20;99.90;;;8.99;100.00;99613.44;5152442;28;20138;-57
2023/03/26 08:45:26;;;;;;;6.32;2.88;;;9.20;99.90;;;8.95;100.00;99606.41;5145472;28;20047;-56
2023/03/26 08:48:59;;;;;;;7.55;2.40;;;9.20;99.90;;;8.96;100.00;99616.84;5144858;28;20399;-56
2023/03/26 08:52:20;;;;;;;9.10;4.22;;;9.20;99.90;;;9.01;100.00;99605.69;5139826;28;20043;-56
2023/03/26 08:55:30;;;;;;;10.73;3.72;;;9.20;99.90;;;9.04;100.00;99603.13;5142065;28;20065;-56
2023/03/26 08:59:02;;;;;;;8.10;1.52;;;9.20;99.90;;;9.06;100.00;99598.84;5159457;28;20134;-57
2023/03/26 09:02:19;;;;;;;5.45;1.83;;;9.20;99.90;;;9.09;100.00;99601.53;5154657;28;20047;-56
2023/03/26 09:05:39;;;;;;;4.50;1.83;;;9.20;99.90;;;9.04;100.00;99590.16;5122109;29;20051;-57
2023/03/26 09:08:49;;;;;;;8.57;1.85;;;9.20;99.90;;;8.95;100.00;99589.09;5144553;28;20475;-56
2023/03/26 09:11:54;;;;;;;10.13;2.10;;;9.10;99.90;;;8.86;100.00;99585.41;5159672;28;20057;-56
2023/03/26 09:15:03;;;;;;;5.65;1.90;;;9.10;99.90;;;8.84;100.00;99587.09;5125203;28;20097;-56
2023/03/26 09:18:38;;;;;;;6.68;2.13;;;9.10;99.90;;;8.80;100.00;99580.97;5144611;28;20046;-56
2023/03/26 09:21:52;;;;;;;9.13;2.10;;;9.00;99.90;;;8.81;100.00;99574.94;5082414;29;20099;-58
2023/03/26 09:25:09;;;;;;;2.25;1.23;;;9.00;99.90;;;8.83;100.00;99567.16;5138261;28;20450;-56
2023/03/26 09:28:19;;;;;;;5.03;1.55;;;9.00;99.90;;;8.75;100.00;99563.53;5114528;28;20050;-56
2023/03/26 09:31:15;;;;;;;4.15;1.98;;;9.00;99.90;;;8.76;100.00;99555.75;5141331;28;20053;-56
2023/03/26 09:34:08;;;;;;;5.93;1.65;;;8.90;99.90;;;8.75;100.00;99543.63;5144057;28;20055;-56
2023/03/26 09:36:57;;;;;;;2.88;1.58;;;8.90;99.90;;;8.72;100.00;99540.94;5159216;28;20038;-56
2023/03/26 09:39:39;;;;;;;3.85;1.88;;;8.90;99.90;;;8.75;100.00;99535.81;5144123;28;20455;-57
2023/03/26 09:42:23;;;;;;;5.93;2.88;;;8.90;99.90;;;8.76;100.00;99536.69;5143976;28;20495;-56
2023/03/26 09:45:35;;;;;;;5.72;1.98;;;8.90;99.90;;;8.77;100.00;99528.94;5144153;28;20046;-57
2023/03/26 09:51:12;;;;;;;6.68;2.33;;;8.90;99.90;;;8.72;100.00;99520.16;5111161;29;20055;-53
2023/03/26 09:54:34;;;;;;;8.27;3.70;;;8.90;99.90;;;8.69;100.00;99509.72;5118930;29;20058;-53
2023/03/26 09:57:14;;;;;;;4.38;2.25;;;8.90;99.90;;;8.76;100.00;99511.59;5100551;29;20048;-54
2023/03/26 10:00:18;;;;;;;5.80;1.73;;;8.90;99.90;;;8.73;100.00;99501.13;5123126;28;20078;-53
2023/03/26 10:03:17;;;;;;;3.75;1.63;;;8.90;99.90;;;8.74;100.00;99505.50;5104064;29;20055;-56
2023/03/26 10:05:59;;;;;;;5.00;1.80;;;8.90;99.90;;;8.81;100.00;99509.97;5123335;28;20582;-55
2023/03/26 10:08:49;;;;;;;4.43;1.50;;;9.00;99.90;;;8.83;100.00;99503.06;5122983;28;20043;-58
2023/03/26 10:11:34;;;;;;;4.45;2.42;;;9.00;99.90;;;8.87;100.00;99499.72;5116860;29;20106;-52
2023/03/26 10:14:19;;;;;;;4.70;2.00;;;9.00;99.90;;;8.96;100.00;99484.28;5123850;28;20137;-52
2023/03/26 10:17:04;;;;;;;4.30;1.50;;;9.10;99.90;;;9.11;100.00;99482.84;5115004;29;20504;-52
2023/03/26 10:19:53;;;;;;;4.03;1.38;;;9.20;99.90;;;9.09;100.00;99479.34;5123740;29;20146;-52
2023/03/26 10:22:46;;;;;;;3.80;1.50;;;9.30;99.90;;;9.10;100.00;99476.78;5116203;29;20134;-52
2023/03/26 10:25:47;;;;;;;4.43;1.27;;;9.30;99.90;;;9.28;100.00;99471.06;5119620;29;20043;-52
2023/03/26 10:28:42;;;;;;;7.00;1.83;;;9.40;99.90;;;9.41;100.00;99478.25;5115874;29;20425;-52
2023/03/26 10:31:35;;;;;;;3.60;1.13;;;9.50;99.90;;;9.37;100.00;99476.41;5120168;28;20059;-52
2023/03/26 10:34:26;;;;;;;1.63;1.08;;;9.50;99.90;;;9.34;100.00;99468.56;5120530;28;20130;-52
2023/03/26 10:37:08;;;;;;;4.15;1.30;;;9.50;99.90;;;9.37;100.00;99460.81;5114227;28;20043;-52
2023/03/26 10:40:19;;;;;;;2.13;1.20;;;9.50;99.90;;;9.43;100.00;99471.34;5111354;29;20079;-52
2023/03/26 10:43:21;;;;;;;7.15;1.50;;;9.60;99.90;;;9.45;100.00;99459.25;5123427;28;20050;-52
2023/03/26 10:46:24;;;;;;;3.05;1.52;;;9.60;99.90;;;9.40;100.00;99460.88;5134814;28;20516;-52
2023/03/26 10:49:26;;;;;;;2.55;1.10;;;9.60;99.90;;;9.42;100.00;99450.50;5123070;28;20047;-52
2023/03/26 10:52:00;;;;;;;3.30;1.48;;;9.60;99.90;;;9.46;100.00;99450.59;5102906;28;20110;-53
2023/03/26 10:54:48;;;;;;;1.50;1.00;;;9.60;99.90;;;9.47;100.00;99452.34;5124105;28;20510;-52
2023/03/26 10:57:35;;;;;;;4.05;1.50;;;9.60;99.90;;;9.43;100.00;99445.31;5116119;29;20051;-53
2023/03/26 11:00:23;;;;;;;4.63;1.27;;;9.60;99.90;;;9.41;100.00;99443.56;5115773;29;20044;-52
2023/03/26 11:03:53;;;;;;;4.05;1.25;;;9.60;99.90;;;9.36;100.00;99435.66;5108233;28;20044;-52
2023/03/26 11:06:33;;;;;;;3.85;1.33;;;9.50;99.90;;;9.41;100.00;99436.63;5089379;28;20063;-53
2023/03/26 11:09:24;;;;;;;5.72;1.80;;;9.60;99.90;;;9.39;100.00;99438.34;5113795;29;20117;-53
2023/03/26 11:12:07;;;;;;;5.07;1.48;;;9.50;99.90;;;9.41;100.00;99435.75;5112549;29;20049;-53
2023/03/26 11:14:48;;;;;;;5.95;1.80;;;9.50;99.90;;;9.48;100.00;99433.28;5123275;29;20054;-52
2023/03/26 11:17:32;;;;;;;3.33;2.00;;;9.60;99.90;;;9.55;100.00;99433.38;5114890;29;20054;-53
2023/03/26 11:20:12;;;;;;;6.70;1.60;;;9.70;99.90;;;9.56;100.00;99423.00;5120805;28;20126;-52
2023/03/26 11:23:06;;;;;;;8.80;4.13;;;9.70;99.90;;;9.54;100.00;99421.25;5118694;29;20046;-51
2023/03/26 11:25:55;;;;;;;6.20;2.03;;;9.70;99.90;;;9.60;100.00;99416.13;5109972;29;20047;-52
2023/03/26 11:28:57;;;;;;;2.70;1.70;;;9.80;99.90;;;9.63;100.00;99417.06;5132799;28;20527;-52
2023/03/26 11:31:46;;;;;;;10.10;6.20;;;9.70;99.90;;;9.67;100.00;99407.59;5115950;29;20243;-53
2023/03/26 11:34:25;;;;;;;4.28;1.75;;;9.80;99.90;;;9.71;100.00;99405.03;5114983;29;20054;-53
2023/03/26 11:37:01;;;;;;;2.53;1.52;;;9.80;99.90;;;9.78;100.00;99403.44;5121724;29;20122;-52
2023/03/26 11:39:43;;;;;;;6.35;1.58;;;9.90;99.90;;;9.87;100.00;99400.97;5116549;29;20384;-52
2023/03/26 11:42:16;;;;;;;;;;;9.90;99.90;;;9.93;100.00;99406.28;5119991;29;20499;-53